Main page
METAR-TAF:

METAR-TAF

Airports :

Albert Whitted Airport

St. Petersburg, Florida, United States

latitude: 27-46-04N, longitude: 082-37-34W, elevation: 7 ft

Current weather observation

The report was made 41 minutes ago, at 11:53 UTC
Wind 7 mph from the South
Temperature 79°F
Humidity 94%
Pressure 30.02 in. Hg
Visibility: 10 miles
Clear sky

METAR: KSPG 281153Z 17006KT 10SM CLR 26/25 A3002 RMK AO2 SLP165 T02610250 10267 20250 53010

Time: 08:34 (12:34 UTC)


TAF: missing

Weather observations and forecasts of more than 4000 airports (METAR and TAF reports).

The available stations are represented by yellow and red dots on the map.

Hover mouse over dot to see the name of the station.

Then click to see weather observations and forecasts.

To change the map : click on the green buttons with a black cross to zoom in, on the green button with a dash to zoom out, or on the green arrows for adjacent maps.


METAR-TAF: